createdAt,value
2023-05-14T00:01:25.007Z,1011.61
2023-05-14T00:07:44.998Z,1011.55
2023-05-14T00:14:08.048Z,1011.51
2023-05-14T00:20:28.043Z,1011.49
2023-05-14T00:26:50.984Z,1011.42
2023-05-14T00:33:11.040Z,1011.46
2023-05-14T00:39:34.008Z,1011.4
2023-05-14T00:45:54.016Z,1011.38
2023-05-14T00:52:17.012Z,1011.34
2023-05-14T00:58:36.981Z,1011.3
2023-05-14T01:04:59.992Z,1011.28
2023-05-14T01:11:20.022Z,1011.26
2023-05-14T01:17:43.121Z,1011.26
2023-05-14T01:24:02.981Z,1011.24
2023-05-14T01:30:26.250Z,1011.22
2023-05-14T01:36:45.990Z,1011.2
2023-05-14T01:43:09.042Z,1011.2
2023-05-14T01:49:29.000Z,1011.18
2023-05-14T01:55:52.004Z,1011.18
2023-05-14T02:02:12.070Z,1011.14
2023-05-14T02:08:35.022Z,1011.1
2023-05-14T02:14:55.029Z,1011.03
2023-05-14T02:21:17.982Z,1011.01
2023-05-14T02:27:38.006Z,1011.01
2023-05-14T02:34:00.997Z,1010.99
2023-05-14T02:40:21.031Z,1010.97
2023-05-14T02:46:44.170Z,1010.91
2023-05-14T02:53:03.971Z,1010.89
2023-05-14T02:59:27.013Z,1010.87
2023-05-14T03:05:47.055Z,1010.87
2023-05-14T03:12:09.988Z,1010.83
2023-05-14T03:34:19.984Z,1010.81
2023-05-14T03:40:43.046Z,1010.83
2023-05-14T03:47:02.997Z,1010.81
2023-05-14T03:53:26.020Z,1010.79
2023-05-14T03:59:46.028Z,1010.75
2023-05-14T04:06:08.992Z,1010.75
2023-05-14T04:12:29.054Z,1010.79
2023-05-14T04:18:52.023Z,1010.79
2023-05-14T04:25:11.990Z,1010.77
2023-05-14T04:31:35.061Z,1010.77
2023-05-14T04:37:55.014Z,1010.79
2023-05-14T04:44:18.018Z,1010.81
2023-05-14T04:50:38.016Z,1010.77
2023-05-14T04:57:00.975Z,1010.83
2023-05-14T05:03:21.069Z,1010.91
2023-05-14T05:09:44.023Z,1010.93
2023-05-14T05:16:04.036Z,1010.95
2023-05-14T05:22:27.005Z,1010.99
2023-05-14T05:28:47.029Z,1011.05
2023-05-14T05:35:10.030Z,1011.09
2023-05-14T05:41:30.033Z,1011.07
2023-05-14T05:47:53.161Z,1011.07
2023-05-14T05:54:13.007Z,1011.05
2023-05-14T06:00:36.042Z,1011.03
2023-05-14T06:06:56.020Z,1011.01
2023-05-14T06:13:18.987Z,1010.95
2023-05-14T06:19:39.006Z,1010.99
2023-05-14T06:26:02.069Z,1011.01
2023-05-14T06:32:22.048Z,1011.05
2023-05-14T06:38:45.069Z,1011.03
2023-05-14T06:45:05.009Z,1011.01
2023-05-14T06:51:27.990Z,1010.99
2023-05-14T06:57:48.032Z,1010.97
2023-05-14T07:04:11.087Z,1010.97
2023-05-14T07:10:30.992Z,1010.97
2023-05-14T07:16:54.044Z,1011.03
2023-05-14T07:23:14.009Z,1011.07
2023-05-14T07:29:37.025Z,1011.03
2023-05-14T07:35:56.991Z,1011.01
2023-05-14T07:42:32.185Z,1010.97
2023-05-14T07:48:40.031Z,1010.91
2023-05-14T07:55:03.013Z,1010.87
2023-05-14T08:01:23.054Z,1010.81
2023-05-14T08:07:46.025Z,1010.77
2023-05-14T08:14:06.011Z,1010.75
2023-05-14T08:20:29.062Z,1010.71
2023-05-14T08:43:52.519Z,1010.63
2023-05-14T08:50:11.987Z,1010.67
2023-05-14T08:56:34.992Z,1010.63
2023-05-14T09:02:55.018Z,1010.53
2023-05-14T09:09:18.016Z,1010.47
2023-05-14T09:15:38.052Z,1010.41
2023-05-14T09:22:01.006Z,1010.41
2023-05-14T09:28:21.007Z,1010.33
2023-05-14T09:34:44.031Z,1010.29
2023-05-14T09:41:04.001Z,1010.24
2023-05-14T09:47:27.140Z,1010.2
2023-05-14T09:53:47.119Z,1010.16
2023-05-14T10:00:10.017Z,1010.08
2023-05-14T10:06:30.000Z,1010.02
2023-05-14T10:12:53.162Z,1009.96
2023-05-14T10:19:13.284Z,1009.9
2023-05-14T10:25:35.989Z,1009.86
2023-05-14T10:31:56.192Z,1009.77
2023-05-14T10:38:19.119Z,1009.67
2023-05-14T10:44:38.980Z,1009.63
2023-05-14T10:51:02.148Z,1009.61
2023-05-14T10:57:22.079Z,1009.51
2023-05-14T11:03:45.253Z,1009.45
2023-05-14T11:10:05.053Z,1009.37
2023-05-14T11:16:28.020Z,1009.33
2023-05-14T11:22:47.993Z,1009.3
2023-05-14T11:29:11.160Z,1009.3
2023-05-14T11:35:31.081Z,1009.28
2023-05-14T11:41:53.987Z,1009.22
2023-05-14T11:48:14.012Z,1009.16
2023-05-14T11:54:37.164Z,1009.12
2023-05-14T12:00:57.174Z,1009.06
2023-05-14T12:07:20.073Z,1009.02
2023-05-14T12:13:40.005Z,1009
2023-05-14T12:20:03.029Z,1008.92
2023-05-14T12:26:23.144Z,1008.84
2023-05-14T12:32:46.032Z,1008.73
2023-05-14T12:39:06.011Z,1008.63
2023-05-14T12:45:29.085Z,1008.61
2023-05-14T12:51:50.112Z,1008.51
2023-05-14T12:58:11.997Z,1008.43
2023-05-14T13:04:32.093Z,1008.3
2023-05-14T13:10:55.374Z,1008.24
2023-05-14T13:17:15.084Z,1008.18
2023-05-14T13:23:37.985Z,1008.12
2023-05-14T13:29:58.231Z,1008.08
2023-05-14T13:36:20.980Z,1007.96
2023-05-14T13:59:26.517Z,1007.72
2023-05-14T14:05:46.013Z,1007.6
2023-05-14T14:12:09.108Z,1007.52
2023-05-14T14:18:29.056Z,1007.51
2023-05-14T14:24:51.981Z,1007.47
2023-05-14T14:31:12.031Z,1007.45
2023-05-14T14:37:35.008Z,1007.41
2023-05-14T14:43:54.987Z,1007.39
2023-05-14T14:50:17.994Z,1007.27
2023-05-14T14:56:38.210Z,1007.15
2023-05-14T15:03:01.025Z,1007.08
2023-05-14T15:09:21.294Z,1007.06
2023-05-14T15:15:44.021Z,1007
2023-05-14T15:22:03.988Z,1006.98
2023-05-14T15:28:27.132Z,1006.96
2023-05-14T15:34:47.034Z,1007
2023-05-14T15:41:09.992Z,1006.94
2023-05-14T15:47:30.035Z,1006.9
2023-05-14T15:53:53.132Z,1006.88
2023-05-14T16:00:12.987Z,1006.84
2023-05-14T16:06:36.003Z,1006.82
2023-05-14T16:12:56.011Z,1006.78
2023-05-14T16:19:19.102Z,1006.74
2023-05-14T16:25:38.982Z,1006.74
2023-05-14T16:32:02.069Z,1006.72
2023-05-14T16:38:22.000Z,1006.7
2023-05-14T16:44:44.997Z,1006.7
2023-05-14T16:51:05.003Z,1006.7
2023-05-14T16:57:27.978Z,1006.74
2023-05-14T17:03:47.968Z,1006.74
2023-05-14T17:10:10.996Z,1006.76
2023-05-14T17:16:30.970Z,1006.76
2023-05-14T17:22:54.273Z,1006.76
2023-05-14T17:29:14.290Z,1006.76
2023-05-14T17:35:36.976Z,1006.74
2023-05-14T17:41:56.994Z,1006.76
2023-05-14T17:48:20.014Z,1006.78
2023-05-14T17:54:39.981Z,1006.82
2023-05-14T18:01:03.332Z,1006.86
2023-05-14T18:07:23.009Z,1006.92
2023-05-14T18:13:45.999Z,1006.94
2023-05-14T18:20:06.028Z,1007
2023-05-14T18:26:29.035Z,1007.02
2023-05-14T18:32:49.044Z,1007.04
2023-05-14T18:39:12.064Z,1007.06
2023-05-14T18:45:32.017Z,1007.04
2023-05-14T18:51:54.986Z,1007.04
2023-05-14T18:58:15.003Z,1007.08
2023-05-14T19:04:44.460Z,1007.06
2023-05-14T19:10:58.025Z,1007.13
2023-05-14T19:33:46.036Z,1007.51
2023-05-14T19:40:09.062Z,1007.58
2023-05-14T19:46:29.097Z,1007.66
2023-05-14T19:52:52.004Z,1007.7
2023-05-14T19:59:11.985Z,1007.7
2023-05-14T20:05:35.017Z,1007.74
2023-05-14T20:11:55.038Z,1007.66
2023-05-14T20:18:18.007Z,1007.64
2023-05-14T20:24:37.978Z,1007.62
2023-05-14T20:31:01.150Z,1007.54
2023-05-14T20:37:21.000Z,1007.51
2023-05-14T20:43:43.993Z,1007.47
2023-05-14T20:50:04.000Z,1007.43
2023-05-14T20:56:26.976Z,1007.39
2023-05-14T21:02:47.067Z,1007.39
2023-05-14T21:09:10.006Z,1007.37
2023-05-14T21:15:30.009Z,1007.39
2023-05-14T21:21:53.019Z,1007.43
2023-05-14T21:28:13.008Z,1007.41
2023-05-14T21:34:36.010Z,1007.37
2023-05-14T21:40:55.979Z,1007.35
2023-05-14T21:47:19.011Z,1007.35
2023-05-14T21:53:39.000Z,1007.35
2023-05-14T22:00:01.981Z,1007.31
2023-05-14T22:23:00.005Z,1007.33
2023-05-14T22:29:20.001Z,1007.29
2023-05-14T22:35:42.989Z,1007.29
2023-05-14T22:42:03.005Z,1007.25
2023-05-14T22:48:25.991Z,1007.17
2023-05-14T22:54:45.986Z,1007.13
2023-05-14T23:01:09.014Z,1007.06
2023-05-14T23:07:29.005Z,1007.06
2023-05-14T23:13:52.000Z,1007.06
2023-05-14T23:20:12.011Z,1007
2023-05-14T23:26:34.990Z,1006.94
2023-05-14T23:32:55.020Z,1006.92
2023-05-14T23:39:18.000Z,1006.88
2023-05-14T23:45:38.009Z,1006.84
2023-05-14T23:52:00.989Z,1006.76
2023-05-14T23:58:21.002Z,1006.74
